Alturas, Florida
Current Conditions -  °F | °C
As of 8:55 PM on Friday 31 Oct 2014 (Local Time) from KBOW Reporting Station
Clear Clear  
Wind Chill: 64°   Ceiling: Unl
Heat Index: 64°   Visibility: 10mi
Dew Point: 48°   Wind: 12mph
Humidity: 56%   Direction: 290°WNW
Pressure: 29.91"   Gusts: NA
Location:  27.87°N, 81.71°W
Report Text: KBOW 010055Z AUTO 29010KT 10SM CLR 18/09 A2991 RMK AO2
Loading
Personal Weather Stations






























Interactive Weather Map New forecast layout! Learn more

10-Day Weather Forecast

Advertisements
Track Severe Weather on mobile